sensor_id;sensor_type;location;lat;lon;timestamp;pressure;altitude;pressure_sealevel;temperature;humidity
7832;BME280;3961;42.058;25.586;2024-01-10T00:01:55;101809.19;;;0.45;93.21
7832;BME280;3961;42.058;25.586;2024-01-10T00:04:20;101811.66;;;0.48;89.79
7832;BME280;3961;42.058;25.586;2024-01-10T00:06:46;101818.16;;;0.09;85.87
7832;BME280;3961;42.058;25.586;2024-01-10T00:09:12;101825.81;;;0.26;86.56
7832;BME280;3961;42.058;25.586;2024-01-10T00:11:37;101820.66;;;0.23;86.52
7832;BME280;3961;42.058;25.586;2024-01-10T00:14:04;101828.72;;;0.23;84.84
7832;BME280;3961;42.058;25.586;2024-01-10T00:16:30;101829.28;;;0.15;84.29
7832;BME280;3961;42.058;25.586;2024-01-10T00:18:56;101834.50;;;0.17;85.12
7832;BME280;3961;42.058;25.586;2024-01-10T00:21:21;101833.97;;;-0.12;87.36
7832;BME280;3961;42.058;25.586;2024-01-10T00:23:47;101838.38;;;-0.24;86.00
7832;BME280;3961;42.058;25.586;2024-01-10T00:26:12;101846.28;;;-0.10;85.40
7832;BME280;3961;42.058;25.586;2024-01-10T00:28:38;101845.13;;;-0.06;84.28
7832;BME280;3961;42.058;25.586;2024-01-10T00:31:04;101850.59;;;-0.20;86.50
7832;BME280;3961;42.058;25.586;2024-01-10T00:33:29;101853.59;;;-0.37;86.22
7832;BME280;3961;42.058;25.586;2024-01-10T00:35:55;101851.69;;;-0.22;87.03
7832;BME280;3961;42.058;25.586;2024-01-10T00:38:20;101841.25;;;-0.14;85.86
7832;BME280;3961;42.058;25.586;2024-01-10T00:40:46;101836.59;;;0.00;86.27
7832;BME280;3961;42.058;25.586;2024-01-10T00:43:11;101853.09;;;0.07;85.08
7832;BME280;3961;42.058;25.586;2024-01-10T00:45:37;101860.25;;;0.19;86.64
7832;BME280;3961;42.058;25.586;2024-01-10T00:48:03;101861.97;;;-0.16;86.53
7832;BME280;3961;42.058;25.586;2024-01-10T00:50:28;101854.22;;;-0.08;86.46
7832;BME280;3961;42.058;25.586;2024-01-10T00:52:53;101846.78;;;0.08;88.82
7832;BME280;3961;42.058;25.586;2024-01-10T00:55:19;101848.16;;;0.14;85.35
7832;BME280;3961;42.058;25.586;2024-01-10T00:57:44;101851.38;;;0.06;85.81
7832;BME280;3961;42.058;25.586;2024-01-10T01:00:10;101846.06;;;-0.07;88.40
7832;BME280;3961;42.058;25.586;2024-01-10T01:02:37;101842.19;;;0.10;85.08
7832;BME280;3961;42.058;25.586;2024-01-10T01:05:05;101826.25;;;0.20;85.30
7832;BME280;3961;42.058;25.586;2024-01-10T01:07:32;101825.06;;;0.24;80.82
7832;BME280;3961;42.058;25.586;2024-01-10T01:09:57;101835.91;;;0.22;79.47
7832;BME280;3961;42.058;25.586;2024-01-10T01:12:23;101847.03;;;0.29;77.11
7832;BME280;3961;42.058;25.586;2024-01-10T01:14:48;101839.84;;;0.29;74.35
7832;BME280;3961;42.058;25.586;2024-01-10T01:17:14;101824.53;;;0.19;69.97
7832;BME280;3961;42.058;25.586;2024-01-10T01:19:39;101833.72;;;0.27;71.91
7832;BME280;3961;42.058;25.586;2024-01-10T01:22:05;101835.72;;;0.13;68.41
7832;BME280;3961;42.058;25.586;2024-01-10T01:24:30;101838.56;;;-0.02;68.42
7832;BME280;3961;42.058;25.586;2024-01-10T01:26:56;101838.63;;;0.10;67.89
7832;BME280;3961;42.058;25.586;2024-01-10T01:29:21;101829.16;;;0.17;67.60
7832;BME280;3961;42.058;25.586;2024-01-10T01:31:47;101829.53;;;0.36;68.74
7832;BME280;3961;42.058;25.586;2024-01-10T01:34:13;101828.03;;;0.56;69.88
7832;BME280;3961;42.058;25.586;2024-01-10T01:36:39;101838.88;;;0.54;69.01
7832;BME280;3961;42.058;25.586;2024-01-10T01:39:04;101828.50;;;0.73;71.53
7832;BME280;3961;42.058;25.586;2024-01-10T01:41:30;101828.69;;;0.94;73.94
7832;BME280;3961;42.058;25.586;2024-01-10T01:43:56;101830.75;;;1.02;72.13
7832;BME280;3961;42.058;25.586;2024-01-10T01:46:22;101828.00;;;1.14;73.70
7832;BME280;3961;42.058;25.586;2024-01-10T01:48:49;101826.47;;;0.88;74.19
7832;BME280;3961;42.058;25.586;2024-01-10T01:51:15;101825.31;;;1.14;74.08
7832;BME280;3961;42.058;25.586;2024-01-10T01:53:44;101816.50;;;1.12;74.15
7832;BME280;3961;42.058;25.586;2024-01-10T01:56:10;101817.75;;;1.19;75.13
7832;BME280;3961;42.058;25.586;2024-01-10T01:58:38;101813.25;;;1.20;74.00
7832;BME280;3961;42.058;25.586;2024-01-10T02:01:05;101809.69;;;1.19;73.18
7832;BME280;3961;42.058;25.586;2024-01-10T02:03:31;101792.56;;;0.98;74.14
7832;BME280;3961;42.058;25.586;2024-01-10T02:05:58;101810.06;;;1.15;73.10
7832;BME280;3961;42.058;25.586;2024-01-10T02:08:24;101793.44;;;1.10;71.26
7832;BME280;3961;42.058;25.586;2024-01-10T02:10:49;101811.53;;;1.19;70.40
7832;BME280;3961;42.058;25.586;2024-01-10T02:13:16;101825.91;;;1.07;68.10
7832;BME280;3961;42.058;25.586;2024-01-10T02:15:42;101803.72;;;0.81;71.17
7832;BME280;3961;42.058;25.586;2024-01-10T02:18:08;101799.13;;;0.83;69.78
7832;BME280;3961;42.058;25.586;2024-01-10T02:20:35;101792.50;;;0.76;70.27
7832;BME280;3961;42.058;25.586;2024-01-10T02:23:01;101804.38;;;0.84;71.29
7832;BME280;3961;42.058;25.586;2024-01-10T02:25:26;101805.84;;;0.89;68.59
7832;BME280;3961;42.058;25.586;2024-01-10T02:27:52;101766.06;;;0.59;66.49
7832;BME280;3961;42.058;25.586;2024-01-10T02:30:18;101807.03;;;0.73;67.69
7832;BME280;3961;42.058;25.586;2024-01-10T02:32:43;101823.16;;;0.84;66.98
7832;BME280;3961;42.058;25.586;2024-01-10T02:35:09;101819.13;;;0.90;65.84
7832;BME280;3961;42.058;25.586;2024-01-10T02:37:35;101827.78;;;0.82;63.83
7832;BME280;3961;42.058;25.586;2024-01-10T02:40:00;101821.97;;;0.89;63.30
7832;BME280;3961;42.058;25.586;2024-01-10T02:42:27;101823.28;;;0.59;62.48
7832;BME280;3961;42.058;25.586;2024-01-10T02:44:53;101825.16;;;0.70;63.02
7832;BME280;3961;42.058;25.586;2024-01-10T02:47:18;101822.56;;;0.57;61.78
7832;BME280;3961;42.058;25.586;2024-01-10T02:49:44;101820.25;;;0.64;61.49
7832;BME280;3961;42.058;25.586;2024-01-10T02:52:09;101825.59;;;0.53;60.38
7832;BME280;3961;42.058;25.586;2024-01-10T02:54:35;101829.16;;;0.64;59.97
7832;BME280;3961;42.058;25.586;2024-01-10T02:57:01;101828.00;;;0.79;60.28
7832;BME280;3961;42.058;25.586;2024-01-10T02:59:27;101824.50;;;0.79;57.62
7832;BME280;3961;42.058;25.586;2024-01-10T03:01:52;101823.53;;;0.91;58.45
7832;BME280;3961;42.058;25.586;2024-01-10T03:04:18;101827.72;;;0.95;60.34
7832;BME280;3961;42.058;25.586;2024-01-10T03:06:43;101811.97;;;1.02;64.38
7832;BME280;3961;42.058;25.586;2024-01-10T03:09:09;101810.75;;;1.06;66.80
7832;BME280;3961;42.058;25.586;2024-01-10T03:11:34;101821.50;;;0.95;64.26
7832;BME280;3961;42.058;25.586;2024-01-10T03:14:03;101821.34;;;0.96;65.38
7832;BME280;3961;42.058;25.586;2024-01-10T03:16:30;101817.94;;;0.94;67.71
7832;BME280;3961;42.058;25.586;2024-01-10T03:18:55;101795.94;;;0.78;62.50
7832;BME280;3961;42.058;25.586;2024-01-10T03:21:21;101809.84;;;0.83;65.35
7832;BME280;3961;42.058;25.586;2024-01-10T03:23:58;101812.78;;;0.91;62.10
7832;BME280;3961;42.058;25.586;2024-01-10T03:26:24;101822.38;;;0.71;59.53
7832;BME280;3961;42.058;25.586;2024-01-10T03:28:50;101815.25;;;0.59;59.01
7832;BME280;3961;42.058;25.586;2024-01-10T03:31:16;101821.25;;;0.63;59.02
7832;BME280;3961;42.058;25.586;2024-01-10T03:33:42;101817.06;;;0.59;58.67
7832;BME280;3961;42.058;25.586;2024-01-10T03:36:11;101817.66;;;0.51;56.13
7832;BME280;3961;42.058;25.586;2024-01-10T03:38:37;101813.91;;;0.65;57.20
7832;BME280;3961;42.058;25.586;2024-01-10T03:41:03;101818.78;;;0.60;56.68
7832;BME280;3961;42.058;25.586;2024-01-10T03:43:28;101806.91;;;0.27;56.43
7832;BME280;3961;42.058;25.586;2024-01-10T03:45:54;101811.03;;;0.20;57.29
7832;BME280;3961;42.058;25.586;2024-01-10T03:48:20;101817.56;;;-0.20;60.46
7832;BME280;3961;42.058;25.586;2024-01-10T03:50:45;101824.53;;;-0.18;59.55
7832;BME280;3961;42.058;25.586;2024-01-10T03:53:11;101835.06;;;-0.40;59.00
7832;BME280;3961;42.058;25.586;2024-01-10T03:55:36;101834.13;;;-0.52;60.55
7832;BME280;3961;42.058;25.586;2024-01-10T03:58:02;101824.91;;;-0.60;58.92
7832;BME280;3961;42.058;25.586;2024-01-10T04:00:28;101839.16;;;-0.34;57.82
7832;BME280;3961;42.058;25.586;2024-01-10T04:02:53;101846.66;;;-0.27;58.42
7832;BME280;3961;42.058;25.586;2024-01-10T04:05:19;101844.94;;;-0.28;57.18
7832;BME280;3961;42.058;25.586;2024-01-10T04:07:46;101840.28;;;-0.13;57.70
7832;BME280;3961;42.058;25.586;2024-01-10T04:10:12;101847.66;;;-0.04;57.80
7832;BME280;3961;42.058;25.586;2024-01-10T04:12:48;101852.69;;;0.00;57.64
7832;BME280;3961;42.058;25.586;2024-01-10T04:15:14;101854.13;;;-0.07;58.41
7832;BME280;3961;42.058;25.586;2024-01-10T04:17:40;101832.25;;;-0.26;57.57
7832;BME280;3961;42.058;25.586;2024-01-10T04:20:06;101868.78;;;0.00;56.68
7832;BME280;3961;42.058;25.586;2024-01-10T04:22:31;101850.75;;;0.15;58.27
7832;BME280;3961;42.058;25.586;2024-01-10T04:24:58;101848.59;;;0.20;57.27
7832;BME280;3961;42.058;25.586;2024-01-10T04:27:25;101845.31;;;0.28;57.45
7832;BME280;3961;42.058;25.586;2024-01-10T04:29:50;101856.22;;;0.14;54.63
7832;BME280;3961;42.058;25.586;2024-01-10T04:32:16;101855.59;;;0.10;54.83
7832;BME280;3961;42.058;25.586;2024-01-10T04:34:41;101851.91;;;0.11;56.07
7832;BME280;3961;42.058;25.586;2024-01-10T04:37:07;101859.09;;;0.11;54.40
7832;BME280;3961;42.058;25.586;2024-01-10T04:39:34;101867.13;;;0.11;55.98
7832;BME280;3961;42.058;25.586;2024-01-10T04:41:59;101877.50;;;-0.21;55.37
7832;BME280;3961;42.058;25.586;2024-01-10T04:44:25;101871.53;;;-0.37;56.90
7832;BME280;3961;42.058;25.586;2024-01-10T04:46:51;101878.81;;;-0.39;55.35
7832;BME280;3961;42.058;25.586;2024-01-10T04:49:16;101874.72;;;-0.32;55.52
7832;BME280;3961;42.058;25.586;2024-01-10T04:51:42;101885.00;;;-0.14;56.46
7832;BME280;3961;42.058;25.586;2024-01-10T04:54:09;101890.47;;;-0.28;55.40
7832;BME280;3961;42.058;25.586;2024-01-10T04:56:35;101889.81;;;-0.31;55.54
7832;BME280;3961;42.058;25.586;2024-01-10T04:59:04;101886.94;;;-0.41;54.96
7832;BME280;3961;42.058;25.586;2024-01-10T05:01:31;101894.31;;;-0.57;55.04
7832;BME280;3961;42.058;25.586;2024-01-10T05:03:57;101887.56;;;-0.63;60.98
7832;BME280;3961;42.058;25.586;2024-01-10T05:06:22;101895.31;;;-0.58;56.16
7832;BME280;3961;42.058;25.586;2024-01-10T05:08:48;101865.50;;;-0.66;55.02
7832;BME280;3961;42.058;25.586;2024-01-10T05:11:15;101896.88;;;-0.68;55.51
7832;BME280;3961;42.058;25.586;2024-01-10T05:13:41;101893.97;;;-0.78;53.36
7832;BME280;3961;42.058;25.586;2024-01-10T05:16:07;101893.34;;;-0.81;53.16
7832;BME280;3961;42.058;25.586;2024-01-10T05:18:32;101904.28;;;-0.72;53.87
7832;BME280;3961;42.058;25.586;2024-01-10T05:20:58;101909.00;;;-0.75;52.53
7832;BME280;3961;42.058;25.586;2024-01-10T05:23:24;101892.97;;;-1.02;53.20
7832;BME280;3961;42.058;25.586;2024-01-10T05:25:50;101902.72;;;-1.01;53.20
7832;BME280;3961;42.058;25.586;2024-01-10T05:28:15;101907.31;;;-1.03;54.08
7832;BME280;3961;42.058;25.586;2024-01-10T05:30:41;101904.88;;;-0.94;54.60
7832;BME280;3961;42.058;25.586;2024-01-10T05:33:08;101908.75;;;-0.85;53.73
7832;BME280;3961;42.058;25.586;2024-01-10T05:35:34;101913.22;;;-0.98;53.91
7832;BME280;3961;42.058;25.586;2024-01-10T05:38:01;101905.59;;;-1.04;56.32
7832;BME280;3961;42.058;25.586;2024-01-10T05:40:28;101922.06;;;-1.37;58.20
7832;BME280;3961;42.058;25.586;2024-01-10T05:42:57;101919.59;;;-1.40;57.51
7832;BME280;3961;42.058;25.586;2024-01-10T05:45:25;101928.19;;;-1.35;56.85
7832;BME280;3961;42.058;25.586;2024-01-10T05:47:51;101915.50;;;-1.46;57.74
7832;BME280;3961;42.058;25.586;2024-01-10T05:50:16;101922.53;;;-1.31;56.55
7832;BME280;3961;42.058;25.586;2024-01-10T05:52:43;101924.03;;;-1.27;56.78
7832;BME280;3961;42.058;25.586;2024-01-10T05:55:09;101927.88;;;-1.04;57.15
7832;BME280;3961;42.058;25.586;2024-01-10T05:57:36;101934.53;;;-0.97;55.32
7832;BME280;3961;42.058;25.586;2024-01-10T06:00:02;101927.94;;;-1.18;55.24
7832;BME280;3961;42.058;25.586;2024-01-10T06:02:28;101930.63;;;-1.32;58.89
7832;BME280;3961;42.058;25.586;2024-01-10T06:04:53;101929.53;;;-1.42;58.73
7832;BME280;3961;42.058;25.586;2024-01-10T06:07:19;101915.25;;;-1.29;56.74
7832;BME280;3961;42.058;25.586;2024-01-10T06:09:46;101948.47;;;-0.92;55.61
7832;BME280;3961;42.058;25.586;2024-01-10T06:12:12;101950.47;;;-0.95;55.27
7832;BME280;3961;42.058;25.586;2024-01-10T06:14:38;101959.94;;;-1.16;55.05
7832;BME280;3961;42.058;25.586;2024-01-10T06:17:03;101954.69;;;-1.18;56.06
7832;BME280;3961;42.058;25.586;2024-01-10T06:19:32;101957.28;;;-1.31;57.64
7832;BME280;3961;42.058;25.586;2024-01-10T06:21:58;101965.78;;;-1.24;56.50
7832;BME280;3961;42.058;25.586;2024-01-10T06:24:25;101969.22;;;-1.63;58.08
7832;BME280;3961;42.058;25.586;2024-01-10T06:26:50;101973.13;;;-1.68;58.27
7832;BME280;3961;42.058;25.586;2024-01-10T06:29:16;101969.53;;;-1.82;57.85
7832;BME280;3961;42.058;25.586;2024-01-10T06:31:42;101974.72;;;-1.52;58.13
7832;BME280;3961;42.058;25.586;2024-01-10T06:34:08;101974.13;;;-1.43;58.31
7832;BME280;3961;42.058;25.586;2024-01-10T06:36:34;101965.88;;;-1.25;55.96
7832;BME280;3961;42.058;25.586;2024-01-10T06:38:59;101975.69;;;-1.12;56.82
7832;BME280;3961;42.058;25.586;2024-01-10T06:41:25;101980.28;;;-0.87;56.74
7832;BME280;3961;42.058;25.586;2024-01-10T06:43:51;101989.19;;;-0.87;55.20
7832;BME280;3961;42.058;25.586;2024-01-10T06:46:17;101983.13;;;-1.03;57.92
7832;BME280;3961;42.058;25.586;2024-01-10T06:48:43;101948.41;;;-1.31;56.39
7832;BME280;3961;42.058;25.586;2024-01-10T06:51:15;101984.69;;;-0.73;64.29
7832;BME280;3961;42.058;25.586;2024-01-10T06:53:41;101984.41;;;-0.69;60.13
7832;BME280;3961;42.058;25.586;2024-01-10T06:56:07;101986.78;;;-0.52;57.33
7832;BME280;3961;42.058;25.586;2024-01-10T06:58:35;101997.00;;;-0.44;55.19
7832;BME280;3961;42.058;25.586;2024-01-10T07:01:00;102005.72;;;-0.67;55.64
7832;BME280;3961;42.058;25.586;2024-01-10T07:03:26;101997.69;;;-0.67;59.08
7832;BME280;3961;42.058;25.586;2024-01-10T07:05:52;101997.53;;;-0.78;56.66
7832;BME280;3961;42.058;25.586;2024-01-10T07:08:17;102006.41;;;-0.91;62.41
7832;BME280;3961;42.058;25.586;2024-01-10T07:10:43;102002.84;;;-0.64;61.19
7832;BME280;3961;42.058;25.586;2024-01-10T07:13:09;102005.53;;;-0.52;60.09
7832;BME280;3961;42.058;25.586;2024-01-10T07:15:35;102015.94;;;-0.60;58.82
7832;BME280;3961;42.058;25.586;2024-01-10T07:18:00;102011.22;;;-0.56;59.38
7832;BME280;3961;42.058;25.586;2024-01-10T07:20:26;102013.81;;;-0.55;58.84
7832;BME280;3961;42.058;25.586;2024-01-10T07:22:52;102018.91;;;-0.64;58.04
7832;BME280;3961;42.058;25.586;2024-01-10T07:25:17;102018.06;;;-0.52;58.46
7832;BME280;3961;42.058;25.586;2024-01-10T07:27:44;102018.97;;;-0.39;59.78
7832;BME280;3961;42.058;25.586;2024-01-10T07:30:11;102006.44;;;0.37;70.30
7832;BME280;3961;42.058;25.586;2024-01-10T07:32:40;102012.78;;;0.11;58.64
7832;BME280;3961;42.058;25.586;2024-01-10T07:35:06;102021.72;;;-0.01;57.41
7832;BME280;3961;42.058;25.586;2024-01-10T07:37:38;102013.97;;;-0.18;59.19
7832;BME280;3961;42.058;25.586;2024-01-10T07:40:04;102011.19;;;1.07;58.59
7832;BME280;3961;42.058;25.586;2024-01-10T07:42:34;102019.66;;;0.40;57.30
7832;BME280;3961;42.058;25.586;2024-01-10T07:45:00;102005.63;;;-0.01;57.24
7832;BME280;3961;42.058;25.586;2024-01-10T07:47:34;102017.41;;;-0.16;57.93
7832;BME280;3961;42.058;25.586;2024-01-10T07:50:06;102010.75;;;-0.23;56.86
7832;BME280;3961;42.058;25.586;2024-01-10T07:52:32;102006.97;;;-0.33;56.72
7832;BME280;3961;42.058;25.586;2024-01-10T07:54:58;102019.63;;;-0.48;58.34
7832;BME280;3961;42.058;25.586;2024-01-10T07:57:23;102022.88;;;-0.57;59.97
7832;BME280;3961;42.058;25.586;2024-01-10T07:59:49;102027.91;;;-0.65;60.30
7832;BME280;3961;42.058;25.586;2024-01-10T08:02:14;102026.25;;;-0.80;60.60
7832;BME280;3961;42.058;25.586;2024-01-10T08:04:40;102022.34;;;-0.89;59.27
7832;BME280;3961;42.058;25.586;2024-01-10T08:07:06;102028.00;;;-0.94;62.02
7832;BME280;3961;42.058;25.586;2024-01-10T08:09:31;102028.72;;;-1.04;63.02
7832;BME280;3961;42.058;25.586;2024-01-10T08:11:57;102030.38;;;-0.89;63.42
7832;BME280;3961;42.058;25.586;2024-01-10T08:14:23;102030.19;;;-0.86;65.27
7832;BME280;3961;42.058;25.586;2024-01-10T08:16:48;102035.03;;;-0.78;66.46
7832;BME280;3961;42.058;25.586;2024-01-10T08:19:13;102031.31;;;-0.76;62.46
7832;BME280;3961;42.058;25.586;2024-01-10T08:21:39;102035.00;;;-0.64;61.53
7832;BME280;3961;42.058;25.586;2024-01-10T08:24:05;102044.13;;;-0.42;60.26
7832;BME280;3961;42.058;25.586;2024-01-10T08:26:31;102041.06;;;-0.35;56.76
7832;BME280;3961;42.058;25.586;2024-01-10T08:28:57;102036.47;;;-0.33;57.89
7832;BME280;3961;42.058;25.586;2024-01-10T08:31:22;102033.78;;;-0.21;58.89
7832;BME280;3961;42.058;25.586;2024-01-10T08:33:49;102035.19;;;-0.15;57.84
7832;BME280;3961;42.058;25.586;2024-01-10T08:36:14;102027.38;;;0.07;56.47
7832;BME280;3961;42.058;25.586;2024-01-10T08:38:41;102038.63;;;0.63;55.24
7832;BME280;3961;42.058;25.586;2024-01-10T08:41:09;102038.28;;;0.67;52.72
7832;BME280;3961;42.058;25.586;2024-01-10T08:43:40;102036.22;;;1.07;53.41
7832;BME280;3961;42.058;25.586;2024-01-10T08:46:08;102028.19;;;1.31;52.36
7832;BME280;3961;42.058;25.586;2024-01-10T08:48:34;102036.81;;;1.23;48.78
7832;BME280;3961;42.058;25.586;2024-01-10T08:51:02;102033.91;;;1.26;47.86
7832;BME280;3961;42.058;25.586;2024-01-10T08:53:27;102026.13;;;1.35;46.64
7832;BME280;3961;42.058;25.586;2024-01-10T08:55:53;102025.13;;;1.59;44.64
7832;BME280;3961;42.058;25.586;2024-01-10T08:58:19;102016.75;;;1.40;45.78
7832;BME280;3961;42.058;25.586;2024-01-10T09:00:44;102024.19;;;1.37;45.43
7832;BME280;3961;42.058;25.586;2024-01-10T09:03:10;102022.91;;;0.82;44.06
7832;BME280;3961;42.058;25.586;2024-01-10T09:05:35;102019.84;;;0.37;45.35
7832;BME280;3961;42.058;25.586;2024-01-10T09:08:01;102025.03;;;0.40;49.14
7832;BME280;3961;42.058;25.586;2024-01-10T09:10:28;102024.59;;;0.21;48.30
7832;BME280;3961;42.058;25.586;2024-01-10T09:12:53;101994.34;;;0.07;51.44
7832;BME280;3961;42.058;25.586;2024-01-10T09:15:19;102004.75;;;-0.02;51.10
7832;BME280;3961;42.058;25.586;2024-01-10T09:17:45;102017.06;;;0.39;52.16
7832;BME280;3961;42.058;25.586;2024-01-10T09:20:11;102012.91;;;0.35;48.42
7832;BME280;3961;42.058;25.586;2024-01-10T09:22:40;102017.25;;;0.49;50.05
7832;BME280;3961;42.058;25.586;2024-01-10T09:25:06;101997.84;;;0.58;50.35
7832;BME280;3961;42.058;25.586;2024-01-10T09:27:33;102002.16;;;0.35;48.99
7832;BME280;3961;42.058;25.586;2024-01-10T09:30:02;101946.41;;;0.15;47.38
7832;BME280;3961;42.058;25.586;2024-01-10T09:32:28;102000.41;;;0.59;48.42
7832;BME280;3961;42.058;25.586;2024-01-10T09:34:55;101984.63;;;0.91;49.30
7832;BME280;3961;42.058;25.586;2024-01-10T09:37:21;101949.19;;;0.86;49.84
7832;BME280;3961;42.058;25.586;2024-01-10T09:39:46;101981.84;;;0.93;48.92
7832;BME280;3961;42.058;25.586;2024-01-10T09:42:13;101985.47;;;0.92;49.47
7832;BME280;3961;42.058;25.586;2024-01-10T09:44:41;101986.06;;;1.08;48.47
7832;BME280;3961;42.058;25.586;2024-01-10T09:47:07;101980.97;;;0.92;48.89
7832;BME280;3961;42.058;25.586;2024-01-10T09:49:34;101983.09;;;1.00;49.80
7832;BME280;3961;42.058;25.586;2024-01-10T09:52:03;101985.38;;;1.17;46.92
7832;BME280;3961;42.058;25.586;2024-01-10T09:54:30;101977.56;;;1.14;49.05
7832;BME280;3961;42.058;25.586;2024-01-10T09:56:59;101975.47;;;1.17;47.44
7832;BME280;3961;42.058;25.586;2024-01-10T09:59:25;101973.78;;;0.93;47.64
7832;BME280;3961;42.058;25.586;2024-01-10T10:01:53;101975.41;;;1.06;48.12
7832;BME280;3961;42.058;25.586;2024-01-10T10:04:20;101959.81;;;1.11;48.96
7832;BME280;3961;42.058;25.586;2024-01-10T10:06:46;101967.41;;;1.17;49.03
7832;BME280;3961;42.058;25.586;2024-01-10T10:09:12;101968.38;;;1.16;48.82
7832;BME280;3961;42.058;25.586;2024-01-10T10:11:38;101963.13;;;1.39;48.62
7832;BME280;3961;42.058;25.586;2024-01-10T10:14:17;101959.19;;;1.32;46.12
7832;BME280;3961;42.058;25.586;2024-01-10T10:16:43;101953.72;;;1.44;48.41
7832;BME280;3961;42.058;25.586;2024-01-10T10:19:10;101955.84;;;1.52;48.17
7832;BME280;3961;42.058;25.586;2024-01-10T10:21:37;101945.81;;;1.43;47.03
7832;BME280;3961;42.058;25.586;2024-01-10T10:24:04;101949.97;;;1.47;46.98
7832;BME280;3961;42.058;25.586;2024-01-10T10:26:32;101949.84;;;1.59;47.22
7832;BME280;3961;42.058;25.586;2024-01-10T10:28:59;101905.13;;;1.47;46.01
7832;BME280;3961;42.058;25.586;2024-01-10T10:31:25;101922.41;;;1.67;45.25
7832;BME280;3961;42.058;25.586;2024-01-10T10:33:51;101919.38;;;1.94;44.89
7832;BME280;3961;42.058;25.586;2024-01-10T10:36:17;101932.44;;;1.98;45.45
7832;BME280;3961;42.058;25.586;2024-01-10T10:38:43;101922.56;;;1.99;45.46
7832;BME280;3961;42.058;25.586;2024-01-10T10:41:08;101936.97;;;2.20;43.81
7832;BME280;3961;42.058;25.586;2024-01-10T10:43:38;101919.72;;;2.45;45.81
7832;BME280;3961;42.058;25.586;2024-01-10T10:46:05;101919.75;;;2.77;45.70
7832;BME280;3961;42.058;25.586;2024-01-10T10:48:35;101919.75;;;2.77;45.57
7832;BME280;3961;42.058;25.586;2024-01-10T10:51:06;101916.38;;;2.64;45.88
7832;BME280;3961;42.058;25.586;2024-01-10T10:53:34;101918.13;;;2.53;44.44
7832;BME280;3961;42.058;25.586;2024-01-10T10:56:03;101914.97;;;2.37;43.59
7832;BME280;3961;42.058;25.586;2024-01-10T10:58:39;101914.56;;;2.64;46.25
7832;BME280;3961;42.058;25.586;2024-01-10T11:01:06;101910.81;;;2.76;46.89
7832;BME280;3961;42.058;25.586;2024-01-10T11:03:37;101910.28;;;2.93;42.22
7832;BME280;3961;42.058;25.586;2024-01-10T11:06:04;101895.84;;;2.94;42.91
7832;BME280;3961;42.058;25.586;2024-01-10T11:09:05;101906.31;;;3.29;42.55
7832;BME280;3961;42.058;25.586;2024-01-10T11:11:58;101902.19;;;3.46;41.54
7832;BME280;3961;42.058;25.586;2024-01-10T11:25:40;101869.16;;;2.91;42.80
7832;BME280;3961;42.058;25.586;2024-01-10T11:28:06;101877.53;;;3.09;42.62
7832;BME280;3961;42.058;25.586;2024-01-10T11:30:51;101875.97;;;3.27;40.76
7832;BME280;3961;42.058;25.586;2024-01-10T11:33:30;101875.06;;;3.38;42.21
7832;BME280;3961;42.058;25.586;2024-01-10T11:38:42;101865.50;;;3.34;44.10
7832;BME280;3961;42.058;25.586;2024-01-10T11:41:12;101866.50;;;3.33;43.22
7832;BME280;3961;42.058;25.586;2024-01-10T11:43:38;101870.38;;;3.40;41.86
7832;BME280;3961;42.058;25.586;2024-01-10T11:46:05;101861.56;;;3.59;42.20
7832;BME280;3961;42.058;25.586;2024-01-10T11:48:32;101855.03;;;3.61;44.26
7832;BME280;3961;42.058;25.586;2024-01-10T11:50:59;101855.03;;;3.61;43.68
7832;BME280;3961;42.058;25.586;2024-01-10T11:53:42;101853.94;;;4.04;46.23
7832;BME280;3961;42.058;25.586;2024-01-10T11:56:13;101856.78;;;3.72;44.81
7832;BME280;3961;42.058;25.586;2024-01-10T12:01:19;101849.16;;;4.86;44.84
7832;BME280;3961;42.058;25.586;2024-01-10T12:03:45;101846.28;;;4.49;41.29
7832;BME280;3961;42.058;25.586;2024-01-10T12:06:11;101845.63;;;4.16;42.25
7832;BME280;3961;42.058;25.586;2024-01-10T12:08:37;101840.31;;;3.96;41.83
7832;BME280;3961;42.058;25.586;2024-01-10T12:11:04;101840.66;;;3.81;42.26
7832;BME280;3961;42.058;25.586;2024-01-10T12:13:30;101833.75;;;3.98;42.40
7832;BME280;3961;42.058;25.586;2024-01-10T12:15:56;101837.09;;;4.11;41.82
7832;BME280;3961;42.058;25.586;2024-01-10T12:18:21;101836.47;;;3.98;43.76
7832;BME280;3961;42.058;25.586;2024-01-10T12:20:47;101827.41;;;4.09;42.82
7832;BME280;3961;42.058;25.586;2024-01-10T12:23:13;101823.81;;;3.99;42.48
7832;BME280;3961;42.058;25.586;2024-01-10T12:25:39;101823.00;;;4.08;43.10
7832;BME280;3961;42.058;25.586;2024-01-10T12:28:04;101811.81;;;4.12;42.74
7832;BME280;3961;42.058;25.586;2024-01-10T12:30:30;101811.53;;;4.15;44.34
7832;BME280;3961;42.058;25.586;2024-01-10T12:32:59;101820.78;;;4.22;43.45
7832;BME280;3961;42.058;25.586;2024-01-10T12:35:25;101815.50;;;4.11;43.91
7832;BME280;3961;42.058;25.586;2024-01-10T12:37:54;101808.09;;;4.13;42.75
7832;BME280;3961;42.058;25.586;2024-01-10T12:40:21;101821.78;;;4.21;44.64
7832;BME280;3961;42.058;25.586;2024-01-10T12:42:47;101822.09;;;5.80;62.33
7832;BME280;3961;42.058;25.586;2024-01-10T12:45:22;101819.09;;;5.74;42.37
7832;BME280;3961;42.058;25.586;2024-01-10T12:47:48;101827.13;;;5.56;42.56
7832;BME280;3961;42.058;25.586;2024-01-10T12:50:14;101826.94;;;5.21;41.43
7832;BME280;3961;42.058;25.586;2024-01-10T12:52:42;101820.25;;;4.57;41.54
7832;BME280;3961;42.058;25.586;2024-01-10T12:55:09;101823.41;;;4.62;42.59
7832;BME280;3961;42.058;25.586;2024-01-10T12:57:35;101815.28;;;4.53;44.04
7832;BME280;3961;42.058;25.586;2024-01-10T13:00:00;101830.38;;;4.84;43.79
7832;BME280;3961;42.058;25.586;2024-01-10T13:02:32;101818.16;;;4.90;43.81
7832;BME280;3961;42.058;25.586;2024-01-10T13:05:00;101822.25;;;4.94;43.70
7832;BME280;3961;42.058;25.586;2024-01-10T13:07:26;101816.72;;;4.95;46.21
7832;BME280;3961;42.058;25.586;2024-01-10T13:09:52;101823.00;;;4.86;44.29
7832;BME280;3961;42.058;25.586;2024-01-10T13:12:19;101819.44;;;4.86;45.79
7832;BME280;3961;42.058;25.586;2024-01-10T13:14:45;101822.28;;;4.84;44.92
7832;BME280;3961;42.058;25.586;2024-01-10T13:17:11;101821.56;;;4.73;46.16
7832;BME280;3961;42.058;25.586;2024-01-10T13:19:36;101818.13;;;4.71;46.45
7832;BME280;3961;42.058;25.586;2024-01-10T13:22:02;101821.41;;;4.74;46.37